sensor_id;sensor_type;location;lat;lon;timestamp;pressure;altitude;pressure_sealevel;temperature;humidity
22241;BME280;11289;52.524;13.694;2023-07-29T00:00:43;100256.88;;;18.45;90.03
22241;BME280;11289;52.524;13.694;2023-07-29T00:03:09;100250.00;;;18.42;90.05
22241;BME280;11289;52.524;13.694;2023-07-29T00:05:36;100221.84;;;18.24;90.08
22241;BME280;11289;52.524;13.694;2023-07-29T00:08:03;100238.78;;;18.39;90.33
22241;BME280;11289;52.524;13.694;2023-07-29T00:10:31;100244.78;;;18.37;89.89
22241;BME280;11289;52.524;13.694;2023-07-29T00:12:58;100246.75;;;18.33;89.46
22241;BME280;11289;52.524;13.694;2023-07-29T00:15:24;100233.06;;;18.28;89.21
22241;BME280;11289;52.524;13.694;2023-07-29T00:17:50;100224.59;;;18.17;89.51
22241;BME280;11289;52.524;13.694;2023-07-29T00:20:16;100236.66;;;18.21;89.33
22241;BME280;11289;52.524;13.694;2023-07-29T00:22:42;100239.06;;;18.19;89.31
22241;BME280;11289;52.524;13.694;2023-07-29T00:25:08;100230.19;;;18.14;88.89
22241;BME280;11289;52.524;13.694;2023-07-29T00:27:34;100241.41;;;18.10;88.78
22241;BME280;11289;52.524;13.694;2023-07-29T00:30:00;100234.97;;;18.06;88.40
22241;BME280;11289;52.524;13.694;2023-07-29T00:32:29;100229.69;;;17.97;88.82
22241;BME280;11289;52.524;13.694;2023-07-29T00:34:55;100223.22;;;17.93;88.49
22241;BME280;11289;52.524;13.694;2023-07-29T00:37:21;100234.06;;;17.95;88.74
22241;BME280;11289;52.524;13.694;2023-07-29T00:39:47;100239.28;;;17.92;88.41
22241;BME280;11289;52.524;13.694;2023-07-29T00:42:13;100232.41;;;17.86;88.57
22241;BME280;11289;52.524;13.694;2023-07-29T00:44:39;100230.78;;;17.85;88.52
22241;BME280;11289;52.524;13.694;2023-07-29T00:47:05;100230.00;;;17.85;88.77
22241;BME280;11289;52.524;13.694;2023-07-29T00:49:32;100226.34;;;17.84;88.73
22241;BME280;11289;52.524;13.694;2023-07-29T00:51:59;100227.13;;;17.81;88.72
22241;BME280;11289;52.524;13.694;2023-07-29T00:54:25;100212.25;;;17.77;89.07
22241;BME280;11289;52.524;13.694;2023-07-29T00:56:51;100231.13;;;17.80;89.24
22241;BME280;11289;52.524;13.694;2023-07-29T00:59:17;100225.91;;;17.79;89.45
22241;BME280;11289;52.524;13.694;2023-07-29T01:01:43;100221.06;;;17.75;89.57
22241;BME280;11289;52.524;13.694;2023-07-29T01:04:09;100211.44;;;17.73;89.85
22241;BME280;11289;52.524;13.694;2023-07-29T01:14:47;100204.56;;;17.67;89.80
22241;BME280;11289;52.524;13.694;2023-07-29T01:17:22;100216.56;;;17.64;90.04
22241;BME280;11289;52.524;13.694;2023-07-29T01:20:08;100208.16;;;17.64;89.71
22241;BME280;11289;52.524;13.694;2023-07-29T01:22:35;100216.97;;;17.62;89.67
22241;BME280;11289;52.524;13.694;2023-07-29T01:25:01;100202.88;;;17.58;89.42
22241;BME280;11289;52.524;13.694;2023-07-29T01:27:27;100208.09;;;17.56;89.05
22241;BME280;11289;52.524;13.694;2023-07-29T01:29:54;100201.31;;;17.57;89.12
22241;BME280;11289;52.524;13.694;2023-07-29T01:32:43;100205.69;;;17.55;88.74
22241;BME280;11289;52.524;13.694;2023-07-29T01:35:26;100200.81;;;17.48;88.63
22241;BME280;11289;52.524;13.694;2023-07-29T01:38:05;100179.91;;;17.38;88.46
22241;BME280;11289;52.524;13.694;2023-07-29T01:40:33;100193.53;;;17.40;88.42
22241;BME280;11289;52.524;13.694;2023-07-29T01:42:59;100199.16;;;17.40;89.24
22241;BME280;11289;52.524;13.694;2023-07-29T01:45:25;100186.25;;;17.35;88.50
22241;BME280;11289;52.524;13.694;2023-07-29T01:47:52;100194.66;;;17.32;88.58
22241;BME280;11289;52.524;13.694;2023-07-29T01:50:18;100195.06;;;17.30;88.77
22241;BME280;11289;52.524;13.694;2023-07-29T01:52:44;100196.63;;;17.28;88.86
22241;BME280;11289;52.524;13.694;2023-07-29T01:55:10;100196.56;;;17.20;88.87
22241;BME280;11289;52.524;13.694;2023-07-29T01:57:36;100201.41;;;17.23;88.82
22241;BME280;11289;52.524;13.694;2023-07-29T02:00:02;100197.69;;;17.12;88.85
22241;BME280;11289;52.524;13.694;2023-07-29T02:02:29;100212.59;;;17.20;88.79
22241;BME280;11289;52.524;13.694;2023-07-29T02:04:55;100193.22;;;17.04;89.15
22241;BME280;11289;52.524;13.694;2023-07-29T02:07:21;100213.75;;;17.15;88.87
22241;BME280;11289;52.524;13.694;2023-07-29T02:09:47;100191.94;;;16.98;89.79
22241;BME280;11289;52.524;13.694;2023-07-29T02:12:13;100197.19;;;17.03;89.95
22241;BME280;11289;52.524;13.694;2023-07-29T02:14:39;100196.81;;;17.04;89.55
22241;BME280;11289;52.524;13.694;2023-07-29T02:17:05;100203.66;;;17.11;89.82
22241;BME280;11289;52.524;13.694;2023-07-29T02:19:31;100209.28;;;17.11;90.04
22241;BME280;11289;52.524;13.694;2023-07-29T02:21:57;100210.09;;;17.11;89.81
22241;BME280;11289;52.524;13.694;2023-07-29T02:24:23;100207.69;;;17.10;89.78
22241;BME280;11289;52.524;13.694;2023-07-29T02:26:49;100207.63;;;17.06;89.47
22241;BME280;11289;52.524;13.694;2023-07-29T02:29:15;100187.44;;;16.90;89.37
22241;BME280;11289;52.524;13.694;2023-07-29T02:31:41;100189.88;;;16.91;88.95
22241;BME280;11289;52.524;13.694;2023-07-29T02:34:07;100202.31;;;16.94;89.08
22241;BME280;11289;52.524;13.694;2023-07-29T02:36:33;100215.94;;;16.95;88.92
22241;BME280;11289;52.524;13.694;2023-07-29T02:38:59;100211.13;;;16.92;88.65
22241;BME280;11289;52.524;13.694;2023-07-29T02:41:25;100205.88;;;16.91;88.54
22241;BME280;11289;52.524;13.694;2023-07-29T02:43:51;100203.31;;;16.78;88.53
22241;BME280;11289;52.524;13.694;2023-07-29T02:46:17;100209.75;;;16.82;88.86
22241;BME280;11289;52.524;13.694;2023-07-29T02:48:44;100205.72;;;16.80;88.64
22241;BME280;11289;52.524;13.694;2023-07-29T02:51:10;100191.25;;;16.74;88.54
22241;BME280;11289;52.524;13.694;2023-07-29T02:53:36;100208.50;;;16.76;88.67
22241;BME280;11289;52.524;13.694;2023-07-29T02:56:03;100208.44;;;16.73;88.80
22241;BME280;11289;52.524;13.694;2023-07-29T02:58:29;100207.22;;;16.70;88.43
22241;BME280;11289;52.524;13.694;2023-07-29T03:01:02;100213.63;;;16.70;88.25
22241;BME280;11289;52.524;13.694;2023-07-29T03:03:29;100208.03;;;16.70;88.32
22241;BME280;11289;52.524;13.694;2023-07-29T03:06:09;100217.63;;;16.69;88.92
22241;BME280;11289;52.524;13.694;2023-07-29T03:08:36;100220.41;;;16.66;88.83
22241;BME280;11289;52.524;13.694;2023-07-29T03:11:10;100220.41;;;16.66;88.92
22241;BME280;11289;52.524;13.694;2023-07-29T03:13:37;100215.56;;;16.63;89.34
22241;BME280;11289;52.524;13.694;2023-07-29T03:16:06;100215.13;;;16.61;89.77
22241;BME280;11289;52.524;13.694;2023-07-29T03:18:33;100223.13;;;16.59;89.14
22241;BME280;11289;52.524;13.694;2023-07-29T03:20:59;100217.91;;;16.57;88.93
22241;BME280;11289;52.524;13.694;2023-07-29T03:23:25;100198.97;;;16.50;88.83
22241;BME280;11289;52.524;13.694;2023-07-29T03:25:51;100202.97;;;16.49;88.83
22241;BME280;11289;52.524;13.694;2023-07-29T03:28:18;100210.22;;;16.54;89.08
22241;BME280;11289;52.524;13.694;2023-07-29T03:30:44;100204.50;;;16.43;89.03
22241;BME280;11289;52.524;13.694;2023-07-29T03:33:10;100208.19;;;16.51;89.28
22241;BME280;11289;52.524;13.694;2023-07-29T03:35:36;100201.38;;;16.48;88.92
22241;BME280;11289;52.524;13.694;2023-07-29T03:38:02;100194.53;;;16.46;89.35
22241;BME280;11289;52.524;13.694;2023-07-29T03:40:28;100194.91;;;16.44;89.46
22241;BME280;11289;52.524;13.694;2023-07-29T03:42:54;100200.94;;;16.46;89.26
22241;BME280;11289;52.524;13.694;2023-07-29T03:45:20;100206.91;;;16.45;89.33
22241;BME280;11289;52.524;13.694;2023-07-29T03:47:46;100204.91;;;16.45;88.96
22241;BME280;11289;52.524;13.694;2023-07-29T03:50:12;100206.13;;;16.44;89.47
22241;BME280;11289;52.524;13.694;2023-07-29T03:52:38;100206.88;;;16.41;89.13
22241;BME280;11289;52.524;13.694;2023-07-29T03:55:04;100188.38;;;16.33;89.64
22241;BME280;11289;52.524;13.694;2023-07-29T03:57:30;100196.06;;;16.40;89.95
22241;BME280;11289;52.524;13.694;2023-07-29T03:59:56;100198.09;;;16.43;90.33
22241;BME280;11289;52.524;13.694;2023-07-29T04:02:22;100192.50;;;16.43;90.48
22241;BME280;11289;52.524;13.694;2023-07-29T04:04:48;100187.69;;;16.43;90.66
22241;BME280;11289;52.524;13.694;2023-07-29T04:07:14;100177.97;;;16.33;90.58
22241;BME280;11289;52.524;13.694;2023-07-29T04:09:40;100192.88;;;16.41;90.52
22241;BME280;11289;52.524;13.694;2023-07-29T04:12:07;100188.47;;;16.40;90.31
22241;BME280;11289;52.524;13.694;2023-07-29T04:14:33;100194.91;;;16.44;90.74
22241;BME280;11289;52.524;13.694;2023-07-29T04:16:59;100183.63;;;16.37;91.17
22241;BME280;11289;52.524;13.694;2023-07-29T04:19:25;100199.31;;;16.45;91.22
22241;BME280;11289;52.524;13.694;2023-07-29T04:21:51;100190.09;;;16.45;91.27
22241;BME280;11289;52.524;13.694;2023-07-29T04:24:17;100198.56;;;16.48;91.25
22241;BME280;11289;52.524;13.694;2023-07-29T04:26:43;100194.16;;;16.47;91.50
22241;BME280;11289;52.524;13.694;2023-07-29T04:29:09;100191.75;;;16.49;91.83
22241;BME280;11289;52.524;13.694;2023-07-29T04:31:35;100180.56;;;16.49;91.83
22241;BME280;11289;52.524;13.694;2023-07-29T04:34:01;100178.19;;;16.51;92.11
22241;BME280;11289;52.524;13.694;2023-07-29T04:36:28;100167.31;;;16.46;93.23
22241;BME280;11289;52.524;13.694;2023-07-29T04:38:54;100179.13;;;16.63;92.99
22241;BME280;11289;52.524;13.694;2023-07-29T04:41:20;100174.34;;;16.67;93.61
22241;BME280;11289;52.524;13.694;2023-07-29T04:43:46;100184.06;;;16.73;93.54
22241;BME280;11289;52.524;13.694;2023-07-29T04:46:12;100170.38;;;16.68;94.28
22241;BME280;11289;52.524;13.694;2023-07-29T04:48:38;100188.56;;;16.85;94.90
22241;BME280;11289;52.524;13.694;2023-07-29T04:51:04;100171.00;;;16.88;96.16
22241;BME280;11289;52.524;13.694;2023-07-29T04:53:30;100167.06;;;16.93;96.89
22241;BME280;11289;52.524;13.694;2023-07-29T04:55:56;100161.13;;;17.01;96.78
22241;BME280;11289;52.524;13.694;2023-07-29T04:58:22;100177.25;;;17.12;97.96
22241;BME280;11289;52.524;13.694;2023-07-29T05:00:48;100179.25;;;17.11;98.00
22241;BME280;11289;52.524;13.694;2023-07-29T05:03:14;100190.53;;;17.18;98.29
22241;BME280;11289;52.524;13.694;2023-07-29T05:05:40;100182.50;;;17.17;98.09
22241;BME280;11289;52.524;13.694;2023-07-29T05:08:06;100186.97;;;17.25;97.86
22241;BME280;11289;52.524;13.694;2023-07-29T05:10:32;100174.19;;;17.28;97.68
22241;BME280;11289;52.524;13.694;2023-07-29T05:12:58;100179.44;;;17.33;97.99
22241;BME280;11289;52.524;13.694;2023-07-29T05:15:24;100171.09;;;17.40;98.12
22241;BME280;11289;52.524;13.694;2023-07-29T05:17:50;100174.34;;;17.46;98.33
22241;BME280;11289;52.524;13.694;2023-07-29T05:20:16;100173.97;;;17.51;98.42
22241;BME280;11289;52.524;13.694;2023-07-29T05:22:42;100174.81;;;17.55;98.26
22241;BME280;11289;52.524;13.694;2023-07-29T05:25:08;100177.69;;;17.62;98.35
22241;BME280;11289;52.524;13.694;2023-07-29T05:27:35;100183.31;;;17.66;98.82
22241;BME280;11289;52.524;13.694;2023-07-29T05:30:01;100191.38;;;17.71;98.61
22241;BME280;11289;52.524;13.694;2023-07-29T05:32:26;100188.56;;;17.74;98.84
22241;BME280;11289;52.524;13.694;2023-07-29T05:34:52;100196.25;;;17.78;99.30
22241;BME280;11289;52.524;13.694;2023-07-29T05:37:19;100178.53;;;17.70;99.04
22241;BME280;11289;52.524;13.694;2023-07-29T05:39:44;100185.47;;;17.87;99.34
22241;BME280;11289;52.524;13.694;2023-07-29T05:42:10;100178.75;;;17.95;100.00
22241;BME280;11289;52.524;13.694;2023-07-29T05:44:36;100184.41;;;18.02;100.00
22241;BME280;11289;52.524;13.694;2023-07-29T05:47:03;100179.22;;;18.15;100.00
22241;BME280;11289;52.524;13.694;2023-07-29T05:49:29;100170.88;;;18.26;100.00
22241;BME280;11289;52.524;13.694;2023-07-29T05:51:55;100164.13;;;18.45;100.00
22241;BME280;11289;52.524;13.694;2023-07-29T05:54:21;100167.38;;;18.61;100.00
22241;BME280;11289;52.524;13.694;2023-07-29T05:56:47;100170.22;;;18.69;100.00
22241;BME280;11289;52.524;13.694;2023-07-29T05:59:13;100187.13;;;18.83;97.91
22241;BME280;11289;52.524;13.694;2023-07-29T06:01:39;100176.69;;;18.84;97.46
22241;BME280;11289;52.524;13.694;2023-07-29T06:04:04;100181.16;;;18.88;96.97
22241;BME280;11289;52.524;13.694;2023-07-29T06:06:31;100169.94;;;19.03;96.40
22241;BME280;11289;52.524;13.694;2023-07-29T06:08:57;100167.94;;;19.07;95.28
22241;BME280;11289;52.524;13.694;2023-07-29T06:11:23;100169.53;;;19.11;94.59
22241;BME280;11289;52.524;13.694;2023-07-29T06:13:49;100156.66;;;19.21;95.37
22241;BME280;11289;52.524;13.694;2023-07-29T06:16:15;100171.56;;;19.47;94.74
22241;BME280;11289;52.524;13.694;2023-07-29T06:18:41;100155.84;;;19.75;93.54
22241;BME280;11289;52.524;13.694;2023-07-29T06:21:07;100156.63;;;19.93;91.88
22241;BME280;11289;52.524;13.694;2023-07-29T06:23:34;100164.69;;;19.88;90.34
22241;BME280;11289;52.524;13.694;2023-07-29T06:26:00;100161.88;;;19.91;90.28
22241;BME280;11289;52.524;13.694;2023-07-29T06:28:29;100154.97;;;20.17;90.92
22241;BME280;11289;52.524;13.694;2023-07-29T06:30:55;100156.88;;;20.42;89.06
22241;BME280;11289;52.524;13.694;2023-07-29T06:33:20;100151.56;;;20.59;87.20
22241;BME280;11289;52.524;13.694;2023-07-29T06:35:46;100149.84;;;20.79;87.88
22241;BME280;11289;52.524;13.694;2023-07-29T06:38:12;100135.19;;;21.02;85.50
22241;BME280;11289;52.524;13.694;2023-07-29T06:40:38;100135.81;;;21.25;84.84
22241;BME280;11289;52.524;13.694;2023-07-29T06:43:04;100138.09;;;21.40;83.46
22241;BME280;11289;52.524;13.694;2023-07-29T06:45:30;100137.19;;;21.58;83.84
22241;BME280;11289;52.524;13.694;2023-07-29T06:47:56;100138.66;;;21.73;81.24
22241;BME280;11289;52.524;13.694;2023-07-29T06:50:22;100155.56;;;21.77;80.21
22241;BME280;11289;52.524;13.694;2023-07-29T06:52:48;100147.88;;;21.78;80.27
22241;BME280;11289;52.524;13.694;2023-07-29T06:55:14;100150.06;;;22.01;80.30
22241;BME280;11289;52.524;13.694;2023-07-29T06:57:40;100145.34;;;22.25;81.19
22241;BME280;11289;52.524;13.694;2023-07-29T07:00:07;100149.31;;;22.31;78.23
22241;BME280;11289;52.524;13.694;2023-07-29T07:02:34;100145.72;;;22.27;77.49
22241;BME280;11289;52.524;13.694;2023-07-29T07:05:00;100144.59;;;22.21;78.44
22241;BME280;11289;52.524;13.694;2023-07-29T07:07:26;100153.44;;;22.23;79.26
22241;BME280;11289;52.524;13.694;2023-07-29T07:09:53;100155.13;;;22.17;78.42
22241;BME280;11289;52.524;13.694;2023-07-29T07:12:19;100155.56;;;22.12;79.00
22241;BME280;11289;52.524;13.694;2023-07-29T07:14:45;100144.75;;;22.06;79.52
22241;BME280;11289;52.524;13.694;2023-07-29T07:17:11;100137.16;;;22.00;79.19
22241;BME280;11289;52.524;13.694;2023-07-29T07:19:37;100145.63;;;22.00;79.09
22241;BME280;11289;52.524;13.694;2023-07-29T07:22:03;100136.84;;;21.90;78.77
22241;BME280;11289;52.524;13.694;2023-07-29T07:24:29;100158.13;;;22.02;79.60
22241;BME280;11289;52.524;13.694;2023-07-29T07:26:55;100152.41;;;22.06;78.98
22241;BME280;11289;52.524;13.694;2023-07-29T07:29:21;100153.22;;;22.06;79.53
22241;BME280;11289;52.524;13.694;2023-07-29T07:31:52;100150.75;;;22.12;79.78
22241;BME280;11289;52.524;13.694;2023-07-29T07:34:19;100148.69;;;22.16;78.57
22241;BME280;11289;52.524;13.694;2023-07-29T07:36:46;100153.19;;;22.10;78.72
22241;BME280;11289;52.524;13.694;2023-07-29T07:39:12;100145.59;;;22.03;79.57
22241;BME280;11289;52.524;13.694;2023-07-29T07:41:38;100145.53;;;22.07;79.50
22241;BME280;11289;52.524;13.694;2023-07-29T07:44:04;100149.19;;;22.07;79.78
22241;BME280;11289;52.524;13.694;2023-07-29T07:46:30;100148.78;;;22.05;79.44
22241;BME280;11289;52.524;13.694;2023-07-29T07:48:56;100143.84;;;22.13;79.08
22241;BME280;11289;52.524;13.694;2023-07-29T07:51:22;100145.53;;;22.07;78.57
22241;BME280;11289;52.524;13.694;2023-07-29T07:53:48;100143.06;;;22.13;79.26
22241;BME280;11289;52.524;13.694;2023-07-29T07:56:14;100139.63;;;22.29;78.78
22241;BME280;11289;52.524;13.694;2023-07-29T07:58:41;100139.31;;;22.57;78.29
22241;BME280;11289;52.524;13.694;2023-07-29T08:01:08;100149.50;;;22.78;77.03
22241;BME280;11289;52.524;13.694;2023-07-29T08:03:35;100144.66;;;22.79;76.33
22241;BME280;11289;52.524;13.694;2023-07-29T08:06:01;100143.72;;;22.86;76.00
22241;BME280;11289;52.524;13.694;2023-07-29T08:08:28;100138.50;;;22.84;75.59
22241;BME280;11289;52.524;13.694;2023-07-29T08:10:54;100131.63;;;22.85;75.22
22241;BME280;11289;52.524;13.694;2023-07-29T08:13:22;100142.16;;;22.85;74.85
22241;BME280;11289;52.524;13.694;2023-07-29T08:15:49;100136.97;;;22.80;75.19
22241;BME280;11289;52.524;13.694;2023-07-29T08:18:16;100143.84;;;22.78;75.72
22241;BME280;11289;52.524;13.694;2023-07-29T08:20:55;100140.00;;;22.65;75.39
22241;BME280;11289;52.524;13.694;2023-07-29T08:23:26;100122.31;;;22.57;76.46
22241;BME280;11289;52.524;13.694;2023-07-29T08:25:54;100134.34;;;22.65;76.71
22241;BME280;11289;52.524;13.694;2023-07-29T08:28:22;100130.28;;;22.66;76.28
22241;BME280;11289;52.524;13.694;2023-07-29T08:30:48;100129.41;;;22.73;76.40
22241;BME280;11289;52.524;13.694;2023-07-29T08:33:14;100126.13;;;22.74;76.32
22241;BME280;11289;52.524;13.694;2023-07-29T08:35:40;100121.94;;;22.83;75.99
22241;BME280;11289;52.524;13.694;2023-07-29T08:38:06;100122.59;;;22.94;74.28
22241;BME280;11289;52.524;13.694;2023-07-29T08:40:34;100135.47;;;23.26;75.39
22241;BME280;11289;52.524;13.694;2023-07-29T08:43:04;100126.88;;;23.77;72.15
22241;BME280;11289;52.524;13.694;2023-07-29T08:45:34;100119.34;;;23.90;71.81
22241;BME280;11289;52.524;13.694;2023-07-29T08:48:02;100119.50;;;24.03;70.85
22241;BME280;11289;52.524;13.694;2023-07-29T08:50:32;100114.28;;;24.22;70.73
22241;BME280;11289;52.524;13.694;2023-07-29T08:52:59;100111.72;;;24.47;69.96
22241;BME280;11289;52.524;13.694;2023-07-29T08:55:26;100108.22;;;24.60;68.80
22241;BME280;11289;52.524;13.694;2023-07-29T08:57:53;100114.47;;;24.88;68.03
22241;BME280;11289;52.524;13.694;2023-07-29T09:00:20;100102.66;;;24.89;66.43
22241;BME280;11289;52.524;13.694;2023-07-29T09:02:46;100103.66;;;24.82;66.36
22241;BME280;11289;52.524;13.694;2023-07-29T09:05:12;100105.16;;;24.87;66.95
22241;BME280;11289;52.524;13.694;2023-07-29T09:07:38;100100.19;;;24.91;67.30
22241;BME280;11289;52.524;13.694;2023-07-29T09:10:08;100099.41;;;25.07;66.66
22241;BME280;11289;52.524;13.694;2023-07-29T09:12:34;100103.56;;;25.35;66.42
22241;BME280;11289;52.524;13.694;2023-07-29T09:15:00;100106.13;;;25.63;64.33
22241;BME280;11289;52.524;13.694;2023-07-29T09:17:26;100109.66;;;25.67;64.61
22241;BME280;11289;52.524;13.694;2023-07-29T09:19:52;100104.69;;;25.71;64.49
22241;BME280;11289;52.524;13.694;2023-07-29T09:22:19;100102.47;;;25.62;64.31
22241;BME280;11289;52.524;13.694;2023-07-29T09:24:46;100105.25;;;25.49;64.81
22241;BME280;11289;52.524;13.694;2023-07-29T09:27:39;100095.31;;;25.58;64.11
22241;BME280;11289;52.524;13.694;2023-07-29T09:30:05;100091.38;;;25.51;64.76
22241;BME280;11289;52.524;13.694;2023-07-29T09:32:32;100094.16;;;25.55;64.17
22241;BME280;11289;52.524;13.694;2023-07-29T09:34:58;100086.06;;;25.53;63.86
22241;BME280;11289;52.524;13.694;2023-07-29T09:37:24;100083.44;;;25.46;63.97
22241;BME280;11289;52.524;13.694;2023-07-29T09:39:50;100081.31;;;25.34;64.00
22241;BME280;11289;52.524;13.694;2023-07-29T09:42:20;100081.56;;;25.56;65.03
22241;BME280;11289;52.524;13.694;2023-07-29T09:44:49;100076.59;;;25.73;62.99
22241;BME280;11289;52.524;13.694;2023-07-29T09:47:22;100071.84;;;26.12;63.02
22241;BME280;11289;52.524;13.694;2023-07-29T09:49:50;100071.56;;;26.49;60.93
22241;BME280;11289;52.524;13.694;2023-07-29T09:52:17;100066.31;;;26.47;59.60
22241;BME280;11289;52.524;13.694;2023-07-29T09:54:44;100065.31;;;26.41;59.82
22241;BME280;11289;52.524;13.694;2023-07-29T09:57:11;100066.31;;;26.34;60.69
22241;BME280;11289;52.524;13.694;2023-07-29T09:59:39;100065.66;;;26.30;60.65
22241;BME280;11289;52.524;13.694;2023-07-29T10:02:12;100078.59;;;26.31;61.57
22241;BME280;11289;52.524;13.694;2023-07-29T10:04:41;100054.50;;;26.23;60.99
22241;BME280;11289;52.524;13.694;2023-07-29T10:07:07;100058.78;;;26.15;61.56
22241;BME280;11289;52.524;13.694;2023-07-29T10:09:33;100053.09;;;26.15;61.85
22241;BME280;11289;52.524;13.694;2023-07-29T10:12:00;100053.66;;;26.10;61.96
22241;BME280;11289;52.524;13.694;2023-07-29T10:14:27;100048.66;;;26.14;62.52
22241;BME280;11289;52.524;13.694;2023-07-29T10:16:54;100052.09;;;26.21;62.10
22241;BME280;11289;52.524;13.694;2023-07-29T10:19:22;100055.63;;;26.38;61.72
22241;BME280;11289;52.524;13.694;2023-07-29T10:21:48;100044.94;;;26.42;61.12
22241;BME280;11289;52.524;13.694;2023-07-29T10:24:19;100045.06;;;26.39;60.70
22241;BME280;11289;52.524;13.694;2023-07-29T10:26:49;100047.00;;;26.55;62.02
22241;BME280;11289;52.524;13.694;2023-07-29T10:29:19;100033.81;;;26.74;60.35
22241;BME280;11289;52.524;13.694;2023-07-29T10:31:47;100035.28;;;26.91;60.93
22241;BME280;11289;52.524;13.694;2023-07-29T10:34:14;100019.28;;;27.07;59.88
22241;BME280;11289;52.524;13.694;2023-07-29T10:36:40;100024.94;;;27.20;58.01
22241;BME280;11289;52.524;13.694;2023-07-29T10:39:07;100016.34;;;27.33;58.85
22241;BME280;11289;52.524;13.694;2023-07-29T10:42:02;100016.47;;;27.42;57.93
22241;BME280;11289;52.524;13.694;2023-07-29T10:49:46;100006.63;;;27.08;58.33
22241;BME280;11289;52.524;13.694;2023-07-29T10:52:16;100009.38;;;27.12;58.57
22241;BME280;11289;52.524;13.694;2023-07-29T10:54:47;99989.66;;;27.17;58.95
22241;BME280;11289;52.524;13.694;2023-07-29T10:57:14;99990.63;;;27.36;58.67
22241;BME280;11289;52.524;13.694;2023-07-29T10:59:56;99985.84;;;27.55;58.81
22241;BME280;11289;52.524;13.694;2023-07-29T11:02:29;99987.16;;;27.63;57.97
22241;BME280;11289;52.524;13.694;2023-07-29T11:04:55;99988.03;;;27.51;55.93
22241;BME280;11289;52.524;13.694;2023-07-29T11:07:23;99984.00;;;27.39;57.28
22241;BME280;11289;52.524;13.694;2023-07-29T11:09:57;99978.41;;;27.36;56.53
22241;BME280;11289;52.524;13.694;2023-07-29T11:12:40;99979.22;;;27.36;56.56
22241;BME280;11289;52.524;13.694;2023-07-29T11:17:42;99970.53;;;27.40;56.15
22241;BME280;11289;52.524;13.694;2023-07-29T11:20:09;99963.16;;;27.30;55.72
22241;BME280;11289;52.524;13.694;2023-07-29T11:22:36;99953.34;;;27.31;56.33
22241;BME280;11289;52.524;13.694;2023-07-29T11:25:03;99965.75;;;27.37;56.93
22241;BME280;11289;52.524;13.694;2023-07-29T11:27:31;99985.78;;;27.33;56.44
22241;BME280;11289;52.524;13.694;2023-07-29T11:30:00;99985.41;;;27.22;54.52
22241;BME280;11289;52.524;13.694;2023-07-29T11:32:27;99989.56;;;26.95;53.93
22241;BME280;11289;52.524;13.694;2023-07-29T11:34:53;99984.59;;;26.73;55.33
22241;BME280;11289;52.524;13.694;2023-07-29T11:37:19;99975.88;;;26.42;54.35
22241;BME280;11289;52.524;13.694;2023-07-29T11:39:47;99978.81;;;26.26;55.64
22241;BME280;11289;52.524;13.694;2023-07-29T11:42:16;99977.44;;;26.04;56.46
22241;BME280;11289;52.524;13.694;2023-07-29T11:44:42;100007.72;;;25.82;60.54
22241;BME280;11289;52.524;13.694;2023-07-29T11:47:10;100005.69;;;25.40;65.55
22241;BME280;11289;52.524;13.694;2023-07-29T11:49:38;99988.75;;;25.03;67.05
22241;BME280;11289;52.524;13.694;2023-07-29T11:52:06;100024.88;;;24.70;69.86
22241;BME280;11289;52.524;13.694;2023-07-29T11:54:38;100049.38;;;24.44;70.89
22241;BME280;11289;52.524;13.694;2023-07-29T12:00:54;99996.78;;;23.66;74.81
22241;BME280;11289;52.524;13.694;2023-07-29T12:03:25;99985.06;;;23.44;78.09
22241;BME280;11289;52.524;13.694;2023-07-29T12:05:52;100014.31;;;23.37;76.63
22241;BME280;11289;52.524;13.694;2023-07-29T12:08:18;99995.78;;;23.12;78.90
22241;BME280;11289;52.524;13.694;2023-07-29T12:10:44;99977.91;;;22.92;81.20
22241;BME280;11289;52.524;13.694;2023-07-29T12:13:42;100005.97;;;23.06;82.96
22241;BME280;11289;52.524;13.694;2023-07-29T12:16:08;99980.75;;;22.92;84.10
22241;BME280;11289;52.524;13.694;2023-07-29T12:18:35;99976.66;;;22.93;84.99
22241;BME280;11289;52.524;13.694;2023-07-29T12:21:02;99987.56;;;22.94;84.55
22241;BME280;11289;52.524;13.694;2023-07-29T12:23:29;99993.09;;;23.02;83.49
22241;BME280;11289;52.524;13.694;2023-07-29T12:25:59;99973.16;;;22.85;84.01
22241;BME280;11289;52.524;13.694;2023-07-29T12:28:26;99977.34;;;22.77;84.82
22241;BME280;11289;52.524;13.694;2023-07-29T12:30:56;99999.06;;;22.84;84.79
22241;BME280;11289;52.524;13.694;2023-07-29T12:33:36;99997.47;;;22.83;84.29
22241;BME280;11289;52.524;13.694;2023-07-29T12:36:06;99977.06;;;22.71;85.53
22241;BME280;11289;52.524;13.694;2023-07-29T12:38:32;99978.41;;;22.63;85.06
22241;BME280;11289;52.524;13.694;2023-07-29T12:40:58;99975.38;;;22.50;79.48
22241;BME280;11289;52.524;13.694;2023-07-29T12:43:25;99984.88;;;22.36;84.67
22241;BME280;11289;52.524;13.694;2023-07-29T12:45:51;99998.75;;;22.54;86.71
22241;BME280;11289;52.524;13.694;2023-07-29T12:48:23;99969.47;;;22.41;85.55
22241;BME280;11289;52.524;13.694;2023-07-29T12:50:53;99973.09;;;22.41;83.91
22241;BME280;11289;52.524;13.694;2023-07-29T12:53:19;99968.28;;;22.38;84.61
22241;BME280;11289;52.524;13.694;2023-07-29T12:55:45;99969.16;;;22.35;82.80
22241;BME280;11289;52.524;13.694;2023-07-29T12:58:11;100002.03;;;22.49;84.54
22241;BME280;11289;52.524;13.694;2023-07-29T13:00:37;99975.06;;;22.45;85.99